McCarthy, Ontario

10:19 AM EDT on August 16, 2017 (GMT -0400)
Sudbury | | Change Station

Elev 1142 ft 46.62 °N, 80.80 °W | Updated 19 minutes ago

Clear
Clear
61 °F
Feels Like 61 °F
N
4
Wind Variable Wind from WSW

Today
High -- | Low -- °F
--% Chance of Precip.
Yesterday
High -- | Low -- °F
Precip. -- in
Pressure 30.16 in
Visibility 20.0 miles
Clouds Few 1500 ft
Few 20000 ft
Dew Point 52 °F
Humidity 72%
Rainfall 0.00 in
Snow Depth Not available.
6:21 AM 8:30 PM
Waning Crescent, 33% visible
METAR CYSB 161400Z 25003KT 150V280 20SM FEW015 FEW200 16/11 A3014 RMK CF1CI1 SLP211 DENSITY ALT 1300FT
Pressure 30.16 in
Visibility 20.0 miles
Clouds Few 1500 ft
Few 20000 ft
Dew Point 52 °F
Humidity 72%
Rainfall 0.00 in
Snow Depth Not available.
6:21 AM 8:30 PM
Waning Crescent, 33% visible
METAR CYSB 161400Z 25003KT 150V280 20SM FEW015 FEW200 16/11 A3014 RMK CF1CI1 SLP211 DENSITY ALT 1300FT

Get Severe Weather Alerts

Thanks for signing up!

Be on the lookout for a verification email in your inbox.

You'll start receiving the daily forecast at 6 AM.

×

10-Day Weather Forecast

Almanac

Astronomy

Aug. 16, 2017 Rise Set
Actual Time
Civil Twilight
Nautical Twilight
Astronomical Twilight
Moon
Length of Visible Light
Length of Day
Tomorrow will be .
, % of the Moon is Illuminated

Today's Extremes

Country Highs Country Lows

Community

WunderPhotos

Category 6

Welcome to Category 6. This is the collective home for Weather Underground's featured writeups by Dr. Jeff Masters (right), Bob Henson (left), Chris Burt, and other regular contributors.

Nearby

Air Quality

  Air Quality AQ Index Pollutant
Not available.

Snow Depth

Station Depth Elevation

Earthquake Activity

City Distance Mag. Time & Date
Minimum magnitude displayed is 2.5.

Coastal Water Temperatures

Place Temperature

Stations

Nearby Weather Stations

Station Location Temp. Windchill Dew Point Humidity Wind Precip. Elev Updated Type
                   

Watches & Warnings

There are currently no watches in effect.